createdAt,value
2022-11-24T00:00:17.478Z,0.75
2022-11-24T00:03:19.907Z,0.75
2022-11-24T00:06:22.269Z,1.35
2022-11-24T00:09:24.379Z,1.80
2022-11-24T00:12:26.485Z,1.70
2022-11-24T00:15:28.572Z,1.00
2022-11-24T00:18:31.249Z,1.00
2022-11-24T00:21:33.368Z,1.30
2022-11-24T00:24:35.696Z,1.15
2022-11-24T00:27:37.958Z,1.40
2022-11-24T00:30:40.038Z,1.20
2022-11-24T00:33:42.229Z,1.30
2022-11-24T00:36:44.488Z,1.20
2022-11-24T00:39:46.742Z,1.13
2022-11-24T00:42:48.854Z,1.52
2022-11-24T00:45:51.099Z,0.85
2022-11-24T00:48:53.967Z,1.30
2022-11-24T00:51:56.049Z,0.95
2022-11-24T00:54:58.126Z,1.30
2022-11-24T00:58:00.242Z,1.10
2022-11-24T01:01:16.526Z,1.40
2022-11-24T01:04:18.634Z,1.42
2022-11-24T01:07:20.699Z,1.40
2022-11-24T01:10:22.764Z,1.42
2022-11-24T01:13:24.789Z,1.80
2022-11-24T01:16:29.235Z,1.90
2022-11-24T01:19:31.273Z,2.30
2022-11-24T01:22:34.742Z,1.73
2022-11-24T01:25:40.065Z,2.30
2022-11-24T01:28:46.936Z,1.75
2022-11-24T01:31:49.333Z,1.45
2022-11-24T01:34:51.367Z,0.70
2022-11-24T01:37:53.440Z,1.27
2022-11-24T01:41:07.617Z,1.35
2022-11-24T01:44:30.089Z,1.15
2022-11-24T01:47:37.008Z,1.30
2022-11-24T01:50:41.653Z,1.20
2022-11-24T01:53:49.312Z,1.30
2022-11-24T01:56:54.188Z,1.70
2022-11-24T02:00:17.079Z,1.50
2022-11-24T02:03:23.237Z,1.10
2022-11-24T02:06:30.415Z,1.38
2022-11-24T02:09:45.307Z,1.38
2022-11-24T02:12:48.418Z,1.33
2022-11-24T02:15:50.552Z,1.27
2022-11-24T02:18:52.726Z,1.38
2022-11-24T02:21:54.779Z,1.20
2022-11-24T02:25:08.958Z,1.33
2022-11-24T02:28:15.062Z,1.27
2022-11-24T02:31:17.218Z,1.30
2022-11-24T02:34:20.598Z,1.25
2022-11-24T02:37:22.618Z,1.33
2022-11-24T02:40:27.713Z,0.98
2022-11-24T02:43:32.385Z,0.95
2022-11-24T02:46:34.441Z,1.42
2022-11-24T02:49:36.759Z,1.30
2022-11-24T02:52:38.809Z,0.95
2022-11-24T02:55:40.909Z,1.10
2022-11-24T02:58:42.938Z,1.50
2022-11-24T03:01:45.011Z,1.00
2022-11-24T03:04:47.097Z,1.00
2022-11-24T03:07:49.247Z,1.20
2022-11-24T03:10:51.350Z,0.98
2022-11-24T03:13:53.401Z,1.33
2022-11-24T03:16:55.458Z,1.10
2022-11-24T03:20:03.001Z,1.02
2022-11-24T03:23:06.531Z,1.40
2022-11-24T03:26:10.407Z,1.73
2022-11-24T03:29:12.495Z,1.30
2022-11-24T03:32:14.525Z,1.23
2022-11-24T03:35:16.702Z,1.15
2022-11-24T03:38:19.386Z,1.00
2022-11-24T03:41:21.459Z,1.25
2022-11-24T03:44:23.486Z,1.27
2022-11-24T03:47:25.547Z,1.40
2022-11-24T03:50:27.592Z,1.50
2022-11-24T03:53:31.178Z,1.42
2022-11-24T03:56:33.323Z,1.00
2022-11-24T03:59:35.415Z,0.90
2022-11-24T04:02:38.256Z,1.00
2022-11-24T04:05:40.482Z,0.80
2022-11-24T04:08:42.520Z,0.68
2022-11-24T04:12:04.938Z,0.70
2022-11-24T04:15:07.517Z,1.00
2022-11-24T04:18:10.504Z,1.20
2022-11-24T04:24:32.875Z,1.00
2022-11-24T04:27:36.089Z,1.20
2022-11-24T04:30:40.246Z,1.10
2022-11-24T04:33:42.310Z,0.82
2022-11-24T04:36:44.369Z,1.00
2022-11-24T04:39:46.464Z,1.05
2022-11-24T04:42:55.735Z,0.93
2022-11-24T04:46:00.861Z,0.98
2022-11-24T04:49:03.050Z,1.30
2022-11-24T04:52:05.182Z,0.80
2022-11-24T04:55:08.276Z,1.00
2022-11-24T04:58:13.169Z,1.08
2022-11-24T05:01:15.448Z,0.80
2022-11-24T05:04:18.866Z,1.30
2022-11-24T05:07:21.034Z,0.90
2022-11-24T05:10:35.135Z,0.90
2022-11-24T05:13:37.228Z,0.80
2022-11-24T05:16:39.334Z,0.85
2022-11-24T05:19:41.498Z,0.80
2022-11-24T05:22:43.756Z,1.00
2022-11-24T05:25:47.741Z,1.40
2022-11-24T05:28:50.108Z,1.65
2022-11-24T05:31:52.222Z,1.88
2022-11-24T05:34:54.689Z,1.75
2022-11-24T05:37:58.665Z,2.03
2022-11-24T05:41:04.908Z,1.33
2022-11-24T05:44:07.050Z,1.40
2022-11-24T05:47:09.204Z,1.60
2022-11-24T05:50:13.036Z,1.30
2022-11-24T05:53:15.104Z,1.70
2022-11-24T05:56:17.220Z,1.50
2022-11-24T05:59:19.414Z,1.33
2022-11-24T06:02:21.641Z,1.80
2022-11-24T06:05:23.848Z,1.33
2022-11-24T06:08:30.920Z,1.50
2022-11-24T06:11:33.362Z,1.42
2022-11-24T06:14:35.897Z,1.35
2022-11-24T06:17:38.592Z,1.60
2022-11-24T06:20:42.134Z,2.17
2022-11-24T06:23:44.330Z,1.83
2022-11-24T06:26:46.455Z,1.70
2022-11-24T06:29:48.569Z,1.40
2022-11-24T06:32:55.495Z,1.92
2022-11-24T06:36:04.837Z,1.97
2022-11-24T06:39:07.303Z,1.77
2022-11-24T06:42:09.396Z,1.73
2022-11-24T06:45:11.627Z,1.48
2022-11-24T06:48:13.708Z,1.77
2022-11-24T06:51:15.970Z,1.83
2022-11-24T06:54:21.037Z,1.88
2022-11-24T06:57:23.125Z,1.60
2022-11-24T07:00:25.280Z,1.65
2022-11-24T07:03:27.493Z,1.40
2022-11-24T07:06:29.575Z,1.40
2022-11-24T07:09:31.693Z,1.80
2022-11-24T07:12:36.853Z,1.65
2022-11-24T07:15:39.076Z,1.30
2022-11-24T07:18:42.227Z,1.63
2022-11-24T07:21:44.275Z,1.83
2022-11-24T07:24:46.317Z,1.20
2022-11-24T07:27:48.368Z,1.60
2022-11-24T07:30:50.444Z,1.27
2022-11-24T07:33:53.703Z,1.48
2022-11-24T07:36:55.949Z,2.08
2022-11-24T07:39:58.034Z,2.00
2022-11-24T07:43:01.511Z,1.85
2022-11-24T07:46:07.579Z,1.30
2022-11-24T07:49:09.650Z,2.15
2022-11-24T07:52:11.687Z,2.20
2022-11-24T07:55:13.857Z,2.28
2022-11-24T07:58:15.890Z,2.60
2022-11-24T08:01:18.341Z,2.10
2022-11-24T08:04:20.466Z,1.70
2022-11-24T08:07:22.645Z,2.30
2022-11-24T08:10:24.765Z,1.80
2022-11-24T08:13:26.773Z,2.13
2022-11-24T08:16:29.029Z,1.30
2022-11-24T08:19:32.310Z,1.40
2022-11-24T08:22:34.390Z,1.60
2022-11-24T08:25:37.033Z,1.67
2022-11-24T08:28:39.142Z,2.00
2022-11-24T08:31:41.219Z,3.25
2022-11-24T08:34:43.311Z,3.17
2022-11-24T08:37:45.588Z,3.90
2022-11-24T08:40:47.675Z,4.15
2022-11-24T08:43:49.731Z,2.58
2022-11-24T08:46:53.586Z,2.47
2022-11-24T08:49:55.602Z,2.55
2022-11-24T08:52:57.693Z,2.50
2022-11-24T08:56:00.765Z,2.03
2022-11-24T08:59:03.217Z,1.95
2022-11-24T09:02:06.197Z,1.88
2022-11-24T09:05:28.804Z,2.13
2022-11-24T09:08:31.196Z,3.30
2022-11-24T09:11:34.331Z,3.45
2022-11-24T09:14:36.539Z,3.90
2022-11-24T09:17:38.675Z,2.40
2022-11-24T09:20:40.939Z,3.13
2022-11-24T09:23:43.358Z,2.60
2022-11-24T09:26:47.619Z,2.78
2022-11-24T09:29:50.002Z,3.30
2022-11-24T09:32:52.049Z,2.83
2022-11-24T09:35:54.117Z,2.80
2022-11-24T09:38:56.277Z,3.67
2022-11-24T09:42:17.253Z,4.70
2022-11-24T09:46:05.540Z,3.53
2022-11-24T09:49:34.212Z,3.85
2022-11-24T09:53:01.788Z,2.05
2022-11-24T09:56:22.541Z,3.08
2022-11-24T09:59:25.148Z,2.78
2022-11-24T10:02:27.322Z,2.33
2022-11-24T10:05:29.846Z,2.40
2022-11-24T10:08:54.313Z,2.67
2022-11-24T10:12:05.502Z,3.20
2022-11-24T10:15:39.710Z,3.10
2022-11-24T10:19:16.593Z,2.67
2022-11-24T10:22:52.389Z,2.55
2022-11-24T10:25:59.048Z,4.70
2022-11-24T10:29:01.840Z,3.80
2022-11-24T10:32:07.776Z,2.22
2022-11-24T10:35:18.826Z,3.70
2022-11-24T10:38:29.917Z,2.80
2022-11-24T10:42:02.950Z,2.90
2022-11-24T10:45:12.120Z,3.35
2022-11-24T10:48:25.626Z,2.80
2022-11-24T10:52:08.648Z,3.92
2022-11-24T10:55:10.871Z,3.83
2022-11-24T10:58:16.559Z,4.47
2022-11-24T11:01:21.250Z,6.25
2022-11-24T11:04:43.684Z,7.75
2022-11-24T11:07:45.775Z,4.70
2022-11-24T11:10:50.517Z,6.50
2022-11-24T11:14:01.672Z,5.93
2022-11-24T11:17:36.449Z,13.20
2022-11-24T11:20:38.509Z,13.75
2022-11-24T11:23:40.594Z,17.40
2022-11-24T11:26:42.895Z,13.60
2022-11-24T11:36:51.885Z,23.15
2022-11-24T11:39:55.005Z,11.75
2022-11-24T11:43:12.106Z,9.13
2022-11-24T11:46:17.677Z,7.32
2022-11-24T11:49:19.925Z,11.68
2022-11-24T11:52:32.652Z,9.10
2022-11-24T11:56:12.826Z,7.20
2022-11-24T11:59:32.979Z,5.35
2022-11-24T12:02:54.381Z,3.92
2022-11-24T12:06:15.508Z,3.00
2022-11-24T12:09:45.257Z,4.43
2022-11-24T12:13:08.234Z,4.40
2022-11-24T12:16:31.106Z,15.57
2022-11-24T12:19:36.215Z,6.40
2022-11-24T12:22:57.759Z,6.93
2022-11-24T12:26:37.910Z,4.40
2022-11-24T12:29:57.826Z,3.83
2022-11-24T12:33:28.480Z,4.93
2022-11-24T12:36:55.269Z,6.15
2022-11-24T12:40:09.234Z,5.13
2022-11-24T12:43:27.316Z,4.88
2022-11-24T12:46:51.993Z,4.53
2022-11-24T12:50:11.381Z,3.78
2022-11-24T12:53:28.663Z,4.32
2022-11-24T12:57:07.608Z,3.42
2022-11-24T13:00:38.424Z,4.35
2022-11-24T13:04:17.265Z,5.38
2022-11-24T13:07:38.020Z,4.32
2022-11-24T13:10:55.895Z,3.90
2022-11-24T13:14:22.688Z,4.03
2022-11-24T13:17:47.622Z,3.53
2022-11-24T13:20:54.295Z,5.05
2022-11-24T13:24:04.480Z,5.07
2022-11-24T13:27:15.865Z,4.88
2022-11-24T13:30:35.934Z,4.32
2022-11-24T13:33:38.525Z,3.40
2022-11-24T13:36:52.758Z,3.88
2022-11-24T13:40:17.949Z,3.80
2022-11-24T13:43:20.203Z,3.08
2022-11-24T13:47:05.753Z,4.95
2022-11-24T13:50:21.609Z,4.47
2022-11-24T13:53:45.344Z,4.70
2022-11-24T13:56:47.460Z,3.75
2022-11-24T13:59:49.610Z,2.60
2022-11-24T14:02:53.207Z,2.88
2022-11-24T14:05:55.300Z,2.40
2022-11-24T14:08:59.662Z,3.67
2022-11-24T14:12:24.081Z,3.97
2022-11-24T14:15:29.457Z,3.67
2022-11-24T14:18:32.942Z,4.07
2022-11-24T14:21:42.060Z,2.75
2022-11-24T14:24:45.570Z,3.33
2022-11-24T14:27:47.865Z,3.25
2022-11-24T14:30:50.143Z,3.05
2022-11-24T14:34:12.876Z,3.25
2022-11-24T14:37:15.082Z,3.05
2022-11-24T14:40:42.695Z,2.72
2022-11-24T14:43:44.754Z,3.30
2022-11-24T14:46:47.210Z,4.15
2022-11-24T14:49:49.503Z,2.53
2022-11-24T14:52:58.191Z,3.30
2022-11-24T14:56:22.733Z,3.88
2022-11-24T14:59:26.800Z,3.42
2022-11-24T15:02:46.257Z,6.88
2022-11-24T15:05:53.028Z,2.72
2022-11-24T15:08:55.237Z,2.38
2022-11-24T15:11:57.255Z,3.33
2022-11-24T15:15:22.614Z,2.33
2022-11-24T15:18:37.914Z,2.30
2022-11-24T15:21:39.954Z,2.47
2022-11-24T15:24:51.800Z,2.40
2022-11-24T15:27:53.863Z,3.45
2022-11-24T15:31:01.380Z,1.90
2022-11-24T15:34:03.481Z,3.53
2022-11-24T15:37:05.526Z,3.28
2022-11-24T15:40:09.327Z,2.70
2022-11-24T15:43:35.541Z,2.80
2022-11-24T15:46:38.792Z,2.83
2022-11-24T15:49:40.953Z,2.20
2022-11-24T15:52:43.188Z,2.42
2022-11-24T15:55:45.355Z,2.67
2022-11-24T15:58:47.367Z,1.73
2022-11-24T16:01:50.726Z,3.53
2022-11-24T16:04:52.990Z,3.40
2022-11-24T16:07:55.075Z,2.55
2022-11-24T16:10:57.210Z,3.42
2022-11-24T16:13:59.352Z,2.30
2022-11-24T16:17:01.507Z,2.10
2022-11-24T16:20:04.132Z,2.25
2022-11-24T16:23:06.498Z,1.42
2022-11-24T16:26:09.369Z,3.38
2022-11-24T16:29:11.502Z,1.67
2022-11-24T16:32:13.555Z,3.60
2022-11-24T16:35:16.068Z,5.35
2022-11-24T16:38:19.145Z,6.45
2022-11-24T16:41:21.842Z,3.10
2022-11-24T16:44:23.868Z,3.05
2022-11-24T16:47:26.046Z,3.97
2022-11-24T16:50:28.130Z,3.90
2022-11-24T16:53:30.145Z,3.90
2022-11-24T16:56:32.383Z,3.47
2022-11-24T16:59:34.638Z,4.32
2022-11-24T17:02:36.833Z,7.00
2022-11-24T17:05:38.893Z,4.07
2022-11-24T17:08:41.372Z,3.38
2022-11-24T17:11:43.429Z,2.70
2022-11-24T17:15:03.097Z,3.25
2022-11-24T17:18:23.997Z,3.05
2022-11-24T17:21:27.956Z,1.70
2022-11-24T17:24:30.052Z,3.20
2022-11-24T17:27:32.200Z,3.03
2022-11-24T17:30:34.249Z,2.20
2022-11-24T17:33:36.410Z,2.15
2022-11-24T17:36:39.700Z,2.00
2022-11-24T17:39:42.372Z,2.70
2022-11-24T17:42:45.353Z,2.35
2022-11-24T17:45:56.872Z,3.13
2022-11-24T17:48:58.978Z,2.60
2022-11-24T17:52:01.026Z,2.08
2022-11-24T17:55:03.272Z,2.72
2022-11-24T17:58:05.397Z,1.98
2022-11-24T18:01:07.705Z,2.22
2022-11-24T18:04:09.782Z,2.17
2022-11-24T18:07:11.889Z,1.48
2022-11-24T18:10:14.035Z,1.60
2022-11-24T18:13:34.247Z,1.45
2022-11-24T18:16:38.194Z,1.42
2022-11-24T18:19:40.289Z,1.48
2022-11-24T18:23:04.500Z,1.00
2022-11-24T18:26:05.592Z,1.85
2022-11-24T18:29:08.053Z,1.67
2022-11-24T18:32:10.218Z,1.83
2022-11-24T18:35:12.443Z,1.55
2022-11-24T18:38:14.526Z,1.52
2022-11-24T18:41:16.748Z,1.10
2022-11-24T18:44:18.945Z,1.65
2022-11-24T18:47:21.013Z,1.10
2022-11-24T18:50:23.140Z,1.00
2022-11-24T18:53:26.620Z,0.90
2022-11-24T18:56:29.179Z,1.92
2022-11-24T18:59:31.267Z,1.20
2022-11-24T19:02:33.590Z,0.90
2022-11-24T19:05:35.729Z,1.10
2022-11-24T19:08:37.903Z,1.38
2022-11-24T19:11:42.004Z,1.10
2022-11-24T19:14:44.113Z,1.02
2022-11-24T19:17:47.430Z,2.15
2022-11-24T19:20:49.654Z,2.00
2022-11-24T19:23:51.686Z,3.00
2022-11-24T19:26:54.466Z,3.10
2022-11-24T19:29:56.677Z,4.28
2022-11-24T19:32:58.813Z,2.72
2022-11-24T19:36:03.040Z,2.20
2022-11-24T19:39:05.440Z,2.35
2022-11-24T19:42:07.662Z,1.63
2022-11-24T19:45:10.850Z,1.65
2022-11-24T19:48:13.022Z,2.20
2022-11-24T19:51:20.767Z,3.38
2022-11-24T19:54:22.877Z,2.92
2022-11-24T19:57:24.946Z,3.80
2022-11-24T20:00:30.663Z,2.83
2022-11-24T20:03:34.790Z,2.80
2022-11-24T20:06:42.598Z,2.42
2022-11-24T20:12:49.715Z,1.58
2022-11-24T20:15:51.735Z,8.27
2022-11-24T20:18:55.245Z,4.78
2022-11-24T20:21:57.303Z,6.88
2022-11-24T20:24:59.413Z,2.95
2022-11-24T20:28:01.477Z,1.92
2022-11-24T20:31:07.476Z,1.17
2022-11-24T20:34:09.714Z,1.70
2022-11-24T20:37:13.573Z,1.27
2022-11-24T20:40:15.715Z,1.02
2022-11-24T20:43:17.745Z,1.00
2022-11-24T20:46:21.698Z,1.45
2022-11-24T20:49:23.810Z,1.58
2022-11-24T20:52:25.881Z,1.23
2022-11-24T20:55:27.942Z,1.40
2022-11-24T20:58:30.231Z,1.90
2022-11-24T21:01:40.972Z,1.60
2022-11-24T21:04:43.012Z,2.83
2022-11-24T21:07:45.110Z,2.63
2022-11-24T21:10:57.124Z,4.03
2022-11-24T21:13:59.414Z,2.10
2022-11-24T21:17:01.610Z,1.73
2022-11-24T21:20:03.931Z,2.10
2022-11-24T21:23:05.992Z,2.33
2022-11-24T21:26:11.681Z,2.00
2022-11-24T21:29:23.316Z,2.38
2022-11-24T21:32:26.560Z,2.17
2022-11-24T21:35:28.661Z,2.20
2022-11-24T21:38:30.942Z,2.30
2022-11-24T21:41:33.712Z,2.45
2022-11-24T21:44:36.976Z,2.38
2022-11-24T21:47:39.252Z,1.98
2022-11-24T21:50:41.295Z,1.80
2022-11-24T21:53:44.312Z,6.47
2022-11-24T21:56:46.385Z,8.65
2022-11-24T21:59:48.626Z,5.30
2022-11-24T22:02:50.775Z,9.85
2022-11-24T22:05:57.630Z,5.45
2022-11-24T22:08:59.684Z,4.50
2022-11-24T22:12:02.059Z,2.60
2022-11-24T22:15:04.617Z,2.90
2022-11-24T22:18:06.652Z,2.28
2022-11-24T22:21:14.834Z,2.50
2022-11-24T22:24:16.974Z,3.70
2022-11-24T22:27:19.168Z,2.38
2022-11-24T22:30:21.222Z,3.55
2022-11-24T22:33:23.389Z,3.63
2022-11-24T22:36:28.218Z,1.95
2022-11-24T22:39:30.268Z,1.88
2022-11-24T22:42:32.428Z,2.03
2022-11-24T22:45:35.700Z,2.47
2022-11-24T22:48:38.241Z,1.95
2022-11-24T22:51:40.421Z,2.30
2022-11-24T22:54:42.580Z,1.70
2022-11-24T22:57:48.154Z,2.20
2022-11-24T23:00:50.516Z,1.80
2022-11-24T23:03:54.631Z,1.75
2022-11-24T23:06:56.789Z,2.20
2022-11-24T23:09:58.829Z,2.53
2022-11-24T23:13:00.876Z,2.92
2022-11-24T23:16:07.452Z,4.07
2022-11-24T23:19:09.632Z,4.20
2022-11-24T23:22:11.801Z,4.38
2022-11-24T23:25:13.927Z,3.70
2022-11-24T23:28:16.012Z,3.38
2022-11-24T23:31:20.771Z,2.83
2022-11-24T23:34:22.880Z,1.90
2022-11-24T23:37:39.330Z,3.17
2022-11-24T23:40:47.005Z,2.97
2022-11-24T23:43:49.120Z,2.83
2022-11-24T23:46:51.244Z,2.83
2022-11-24T23:49:53.308Z,3.30
2022-11-24T23:52:55.520Z,2.90
2022-11-24T23:55:57.688Z,3.05
2022-11-24T23:59:00.769Z,2.90
